sensor_id;sensor_type;location;lat;lon;timestamp;temperature;humidity
8420;DHT22;4247;48.550;8.822;2023-06-05T00:00:50;15.60;74.40
8420;DHT22;4247;48.550;8.822;2023-06-05T00:03:17;15.60;74.30
8420;DHT22;4247;48.550;8.822;2023-06-05T00:05:45;15.60;74.40
8420;DHT22;4247;48.550;8.822;2023-06-05T00:08:12;15.60;74.60
8420;DHT22;4247;48.550;8.822;2023-06-05T00:10:39;15.60;74.60
8420;DHT22;4247;48.550;8.822;2023-06-05T00:13:06;15.60;75.20
8420;DHT22;4247;48.550;8.822;2023-06-05T00:15:32;15.50;75.00
8420;DHT22;4247;48.550;8.822;2023-06-05T00:18:01;15.50;75.10
8420;DHT22;4247;48.550;8.822;2023-06-05T00:20:28;15.30;77.30
8420;DHT22;4247;48.550;8.822;2023-06-05T00:22:56;15.30;78.50
8420;DHT22;4247;48.550;8.822;2023-06-05T00:25:23;15.30;77.90
8420;DHT22;4247;48.550;8.822;2023-06-05T00:27:50;15.20;77.40
8420;DHT22;4247;48.550;8.822;2023-06-05T00:30:16;15.20;76.60
8420;DHT22;4247;48.550;8.822;2023-06-05T00:32:43;15.20;75.90
8420;DHT22;4247;48.550;8.822;2023-06-05T00:35:10;15.20;76.40
8420;DHT22;4247;48.550;8.822;2023-06-05T00:37:36;15.20;76.40
8420;DHT22;4247;48.550;8.822;2023-06-05T00:40:06;15.10;76.20
8420;DHT22;4247;48.550;8.822;2023-06-05T00:42:33;15.10;76.30
8420;DHT22;4247;48.550;8.822;2023-06-05T00:44:59;15.10;76.00
8420;DHT22;4247;48.550;8.822;2023-06-05T00:47:26;15.10;76.20
8420;DHT22;4247;48.550;8.822;2023-06-05T00:49:53;15.10;76.00
8420;DHT22;4247;48.550;8.822;2023-06-05T00:52:21;15.00;76.40
8420;DHT22;4247;48.550;8.822;2023-06-05T00:54:48;15.00;75.90
8420;DHT22;4247;48.550;8.822;2023-06-05T00:57:16;15.00;75.80
8420;DHT22;4247;48.550;8.822;2023-06-05T00:59:43;15.00;76.20
8420;DHT22;4247;48.550;8.822;2023-06-05T01:02:11;15.00;76.60
8420;DHT22;4247;48.550;8.822;2023-06-05T01:04:38;14.90;78.00
8420;DHT22;4247;48.550;8.822;2023-06-05T01:07:06;14.90;79.00
8420;DHT22;4247;48.550;8.822;2023-06-05T01:09:34;14.70;80.30
8420;DHT22;4247;48.550;8.822;2023-06-05T01:12:05;14.70;80.80
8420;DHT22;4247;48.550;8.822;2023-06-05T01:14:38;14.60;81.70
8420;DHT22;4247;48.550;8.822;2023-06-05T01:17:07;14.50;82.30
8420;DHT22;4247;48.550;8.822;2023-06-05T01:19:36;14.40;82.90
8420;DHT22;4247;48.550;8.822;2023-06-05T01:22:05;14.30;83.50
8420;DHT22;4247;48.550;8.822;2023-06-05T01:24:33;14.20;83.90
8420;DHT22;4247;48.550;8.822;2023-06-05T01:27:08;14.10;84.40
8420;DHT22;4247;48.550;8.822;2023-06-05T01:29:41;14.10;84.20
8420;DHT22;4247;48.550;8.822;2023-06-05T01:32:13;14.00;84.90
8420;DHT22;4247;48.550;8.822;2023-06-05T01:34:42;14.00;85.20
8420;DHT22;4247;48.550;8.822;2023-06-05T01:37:10;13.90;84.60
8420;DHT22;4247;48.550;8.822;2023-06-05T01:39:41;13.90;85.00
8420;DHT22;4247;48.550;8.822;2023-06-05T01:42:08;13.90;85.40
8420;DHT22;4247;48.550;8.822;2023-06-05T01:44:37;13.90;85.20
8420;DHT22;4247;48.550;8.822;2023-06-05T01:47:05;13.90;85.50
8420;DHT22;4247;48.550;8.822;2023-06-05T01:49:32;13.90;85.20
8420;DHT22;4247;48.550;8.822;2023-06-05T01:51:59;13.90;84.50
8420;DHT22;4247;48.550;8.822;2023-06-05T01:54:26;13.90;84.00
8420;DHT22;4247;48.550;8.822;2023-06-05T01:56:55;13.90;83.50
8420;DHT22;4247;48.550;8.822;2023-06-05T01:59:22;13.90;83.00
8420;DHT22;4247;48.550;8.822;2023-06-05T02:01:49;13.90;82.00
8420;DHT22;4247;48.550;8.822;2023-06-05T02:04:15;13.90;83.00
8420;DHT22;4247;48.550;8.822;2023-06-05T02:06:44;13.90;83.10
8420;DHT22;4247;48.550;8.822;2023-06-05T02:09:11;13.90;83.80
8420;DHT22;4247;48.550;8.822;2023-06-05T02:11:38;13.90;84.60
8420;DHT22;4247;48.550;8.822;2023-06-05T02:14:09;13.90;83.70
8420;DHT22;4247;48.550;8.822;2023-06-05T02:16:39;13.80;85.50
8420;DHT22;4247;48.550;8.822;2023-06-05T02:19:06;13.80;85.60
8420;DHT22;4247;48.550;8.822;2023-06-05T02:21:33;13.70;86.00
8420;DHT22;4247;48.550;8.822;2023-06-05T02:24:01;13.60;87.00
8420;DHT22;4247;48.550;8.822;2023-06-05T02:26:28;13.50;87.20
8420;DHT22;4247;48.550;8.822;2023-06-05T02:28:55;13.40;88.80
8420;DHT22;4247;48.550;8.822;2023-06-05T02:31:24;13.30;89.20
8420;DHT22;4247;48.550;8.822;2023-06-05T02:33:52;13.30;89.40
8420;DHT22;4247;48.550;8.822;2023-06-05T02:36:19;13.20;89.10
8420;DHT22;4247;48.550;8.822;2023-06-05T02:38:46;13.20;89.00
8420;DHT22;4247;48.550;8.822;2023-06-05T02:41:15;13.10;89.10
8420;DHT22;4247;48.550;8.822;2023-06-05T02:43:42;13.10;89.30
8420;DHT22;4247;48.550;8.822;2023-06-05T02:46:09;13.00;89.60
8420;DHT22;4247;48.550;8.822;2023-06-05T02:48:37;13.00;90.20
8420;DHT22;4247;48.550;8.822;2023-06-05T02:51:04;12.90;90.30
8420;DHT22;4247;48.550;8.822;2023-06-05T02:53:31;12.90;90.50
8420;DHT22;4247;48.550;8.822;2023-06-05T02:55:58;12.90;90.30
8420;DHT22;4247;48.550;8.822;2023-06-05T02:58:27;12.90;90.10
8420;DHT22;4247;48.550;8.822;2023-06-05T03:00:53;12.90;90.50
8420;DHT22;4247;48.550;8.822;2023-06-05T03:03:21;12.90;90.50
8420;DHT22;4247;48.550;8.822;2023-06-05T03:05:52;12.90;90.00
8420;DHT22;4247;48.550;8.822;2023-06-05T03:08:19;13.00;90.00
8420;DHT22;4247;48.550;8.822;2023-06-05T03:10:46;13.00;89.80
8420;DHT22;4247;48.550;8.822;2023-06-05T03:13:13;12.90;90.50
8420;DHT22;4247;48.550;8.822;2023-06-05T03:15:40;12.90;90.80
8420;DHT22;4247;48.550;8.822;2023-06-05T03:18:07;12.90;90.40
8420;DHT22;4247;48.550;8.822;2023-06-05T03:20:34;12.80;90.90
8420;DHT22;4247;48.550;8.822;2023-06-05T03:23:03;12.80;91.30
8420;DHT22;4247;48.550;8.822;2023-06-05T03:25:29;12.70;91.40
8420;DHT22;4247;48.550;8.822;2023-06-05T03:27:56;12.70;91.60
8420;DHT22;4247;48.550;8.822;2023-06-05T03:30:23;12.60;91.70
8420;DHT22;4247;48.550;8.822;2023-06-05T03:32:49;12.60;92.00
8420;DHT22;4247;48.550;8.822;2023-06-05T03:35:16;12.60;91.60
8420;DHT22;4247;48.550;8.822;2023-06-05T03:37:43;12.70;91.70
8420;DHT22;4247;48.550;8.822;2023-06-05T03:40:12;12.70;91.70
8420;DHT22;4247;48.550;8.822;2023-06-05T03:42:39;12.70;91.80
8420;DHT22;4247;48.550;8.822;2023-06-05T03:45:06;12.70;91.80
8420;DHT22;4247;48.550;8.822;2023-06-05T03:47:34;12.70;92.10
8420;DHT22;4247;48.550;8.822;2023-06-05T03:50:01;12.70;92.30
8420;DHT22;4247;48.550;8.822;2023-06-05T03:52:28;12.70;92.30
8420;DHT22;4247;48.550;8.822;2023-06-05T03:54:54;12.70;92.40
8420;DHT22;4247;48.550;8.822;2023-06-05T03:57:22;12.70;92.70
8420;DHT22;4247;48.550;8.822;2023-06-05T03:59:50;12.70;92.40
8420;DHT22;4247;48.550;8.822;2023-06-05T04:02:16;12.80;92.50
8420;DHT22;4247;48.550;8.822;2023-06-05T04:04:43;12.90;92.30
8420;DHT22;4247;48.550;8.822;2023-06-05T04:07:10;13.00;92.00
8420;DHT22;4247;48.550;8.822;2023-06-05T04:09:36;13.00;92.30
8420;DHT22;4247;48.550;8.822;2023-06-05T04:12:04;13.00;92.10
8420;DHT22;4247;48.550;8.822;2023-06-05T04:14:32;13.10;92.00
8420;DHT22;4247;48.550;8.822;2023-06-05T04:16:59;13.20;92.50
8420;DHT22;4247;48.550;8.822;2023-06-05T04:19:26;13.30;92.30
8420;DHT22;4247;48.550;8.822;2023-06-05T04:21:52;13.30;92.20
8420;DHT22;4247;48.550;8.822;2023-06-05T04:24:19;13.40;92.30
8420;DHT22;4247;48.550;8.822;2023-06-05T04:26:46;13.50;92.40
8420;DHT22;4247;48.550;8.822;2023-06-05T04:29:14;13.60;92.20
8420;DHT22;4247;48.550;8.822;2023-06-05T04:35:05;14.10;92.10
8420;DHT22;4247;48.550;8.822;2023-06-05T04:37:32;14.40;91.40
8420;DHT22;4247;48.550;8.822;2023-06-05T04:39:58;14.80;91.30
8420;DHT22;4247;48.550;8.822;2023-06-05T04:42:25;15.40;90.80
8420;DHT22;4247;48.550;8.822;2023-06-05T04:44:57;15.80;90.40
8420;DHT22;4247;48.550;8.822;2023-06-05T04:47:24;16.00;89.80
8420;DHT22;4247;48.550;8.822;2023-06-05T04:49:50;16.10;89.60
8420;DHT22;4247;48.550;8.822;2023-06-05T04:52:20;16.10;89.70
8420;DHT22;4247;48.550;8.822;2023-06-05T04:54:48;15.90;90.00
8420;DHT22;4247;48.550;8.822;2023-06-05T04:57:16;15.90;90.00
8420;DHT22;4247;48.550;8.822;2023-06-05T04:59:44;15.80;90.00
8420;DHT22;4247;48.550;8.822;2023-06-05T05:02:11;15.70;90.00
8420;DHT22;4247;48.550;8.822;2023-06-05T05:04:38;15.70;90.80
8420;DHT22;4247;48.550;8.822;2023-06-05T05:07:05;15.70;91.00
8420;DHT22;4247;48.550;8.822;2023-06-05T05:09:33;15.70;91.30
8420;DHT22;4247;48.550;8.822;2023-06-05T05:12:00;15.70;91.70
8420;DHT22;4247;48.550;8.822;2023-06-05T05:14:26;15.70;91.90
8420;DHT22;4247;48.550;8.822;2023-06-05T05:16:53;15.80;92.70
8420;DHT22;4247;48.550;8.822;2023-06-05T05:19:20;15.80;92.60
8420;DHT22;4247;48.550;8.822;2023-06-05T05:21:47;15.90;92.90
8420;DHT22;4247;48.550;8.822;2023-06-05T05:24:14;15.80;92.30
8420;DHT22;4247;48.550;8.822;2023-06-05T05:26:42;15.90;92.10
8420;DHT22;4247;48.550;8.822;2023-06-05T05:29:08;15.90;91.60
8420;DHT22;4247;48.550;8.822;2023-06-05T05:31:35;15.90;91.30
8420;DHT22;4247;48.550;8.822;2023-06-05T05:34:02;16.00;91.30
8420;DHT22;4247;48.550;8.822;2023-06-05T05:36:29;16.00;91.60
8420;DHT22;4247;48.550;8.822;2023-06-05T05:38:58;16.10;91.30
8420;DHT22;4247;48.550;8.822;2023-06-05T05:41:25;16.10;91.50
8420;DHT22;4247;48.550;8.822;2023-06-05T05:43:54;16.20;91.80
8420;DHT22;4247;48.550;8.822;2023-06-05T05:46:20;16.20;92.50
8420;DHT22;4247;48.550;8.822;2023-06-05T05:48:47;16.30;92.30
8420;DHT22;4247;48.550;8.822;2023-06-05T05:51:14;16.40;91.80
8420;DHT22;4247;48.550;8.822;2023-06-05T05:53:41;16.50;92.30
8420;DHT22;4247;48.550;8.822;2023-06-05T05:56:07;16.60;92.40
8420;DHT22;4247;48.550;8.822;2023-06-05T05:58:34;16.70;91.90
8420;DHT22;4247;48.550;8.822;2023-06-05T06:01:02;16.80;92.40
8420;DHT22;4247;48.550;8.822;2023-06-05T06:03:29;16.90;92.60
8420;DHT22;4247;48.550;8.822;2023-06-05T06:05:58;16.90;92.20
8420;DHT22;4247;48.550;8.822;2023-06-05T06:08:24;17.10;91.70
8420;DHT22;4247;48.550;8.822;2023-06-05T06:10:52;17.20;90.90
8420;DHT22;4247;48.550;8.822;2023-06-05T06:13:20;17.20;90.20
8420;DHT22;4247;48.550;8.822;2023-06-05T06:15:47;17.30;90.00
8420;DHT22;4247;48.550;8.822;2023-06-05T06:18:15;17.30;89.90
8420;DHT22;4247;48.550;8.822;2023-06-05T06:20:42;17.40;90.00
8420;DHT22;4247;48.550;8.822;2023-06-05T06:23:08;17.40;89.50
8420;DHT22;4247;48.550;8.822;2023-06-05T06:25:35;17.50;85.20
8420;DHT22;4247;48.550;8.822;2023-06-05T06:28:03;17.50;84.10
8420;DHT22;4247;48.550;8.822;2023-06-05T06:30:31;17.60;84.40
8420;DHT22;4247;48.550;8.822;2023-06-05T06:32:58;17.60;83.90
8420;DHT22;4247;48.550;8.822;2023-06-05T06:35:26;17.70;84.00
8420;DHT22;4247;48.550;8.822;2023-06-05T06:37:53;17.70;82.90
8420;DHT22;4247;48.550;8.822;2023-06-05T06:40:22;17.80;83.20
8420;DHT22;4247;48.550;8.822;2023-06-05T06:42:49;17.90;82.90
8420;DHT22;4247;48.550;8.822;2023-06-05T06:45:16;18.00;83.40
8420;DHT22;4247;48.550;8.822;2023-06-05T06:47:43;18.20;83.20
8420;DHT22;4247;48.550;8.822;2023-06-05T06:50:10;18.30;82.60
8420;DHT22;4247;48.550;8.822;2023-06-05T06:52:38;18.40;82.60
8420;DHT22;4247;48.550;8.822;2023-06-05T06:55:05;18.50;81.40
8420;DHT22;4247;48.550;8.822;2023-06-05T06:57:33;18.60;82.10
8420;DHT22;4247;48.550;8.822;2023-06-05T06:59:59;18.60;81.70
8420;DHT22;4247;48.550;8.822;2023-06-05T07:02:26;18.70;82.50
8420;DHT22;4247;48.550;8.822;2023-06-05T07:04:53;18.80;81.80
8420;DHT22;4247;48.550;8.822;2023-06-05T07:07:20;18.90;82.90
8420;DHT22;4247;48.550;8.822;2023-06-05T07:09:49;19.00;82.20
8420;DHT22;4247;48.550;8.822;2023-06-05T07:12:17;19.20;82.60
8420;DHT22;4247;48.550;8.822;2023-06-05T07:14:45;19.20;81.40
8420;DHT22;4247;48.550;8.822;2023-06-05T07:17:11;19.40;81.50
8420;DHT22;4247;48.550;8.822;2023-06-05T07:19:39;19.40;80.20
8420;DHT22;4247;48.550;8.822;2023-06-05T07:22:06;19.50;79.50
8420;DHT22;4247;48.550;8.822;2023-06-05T07:24:33;19.60;81.00
8420;DHT22;4247;48.550;8.822;2023-06-05T07:27:03;19.80;81.50
8420;DHT22;4247;48.550;8.822;2023-06-05T07:29:30;20.10;82.30
8420;DHT22;4247;48.550;8.822;2023-06-05T07:31:58;20.40;80.30
8420;DHT22;4247;48.550;8.822;2023-06-05T07:34:25;20.70;79.50
8420;DHT22;4247;48.550;8.822;2023-06-05T07:36:53;21.00;80.10
8420;DHT22;4247;48.550;8.822;2023-06-05T07:39:21;21.30;80.50
8420;DHT22;4247;48.550;8.822;2023-06-05T07:41:48;21.60;79.00
8420;DHT22;4247;48.550;8.822;2023-06-05T07:44:17;21.90;78.90
8420;DHT22;4247;48.550;8.822;2023-06-05T07:46:46;22.30;79.60
8420;DHT22;4247;48.550;8.822;2023-06-05T07:49:13;22.50;77.50
8420;DHT22;4247;48.550;8.822;2023-06-05T07:51:41;22.70;77.10
8420;DHT22;4247;48.550;8.822;2023-06-05T07:54:10;22.90;75.70
8420;DHT22;4247;48.550;8.822;2023-06-05T07:56:37;23.20;76.00
8420;DHT22;4247;48.550;8.822;2023-06-05T07:59:05;23.40;75.30
8420;DHT22;4247;48.550;8.822;2023-06-05T08:01:35;23.60;72.90
8420;DHT22;4247;48.550;8.822;2023-06-05T08:04:02;23.80;76.10
8420;DHT22;4247;48.550;8.822;2023-06-05T08:06:29;23.90;73.40
8420;DHT22;4247;48.550;8.822;2023-06-05T08:08:58;23.90;72.10
8420;DHT22;4247;48.550;8.822;2023-06-05T08:11:24;23.90;72.40
8420;DHT22;4247;48.550;8.822;2023-06-05T08:13:51;23.80;71.40
8420;DHT22;4247;48.550;8.822;2023-06-05T08:16:18;23.60;72.70
8420;DHT22;4247;48.550;8.822;2023-06-05T08:18:46;23.60;76.20
8420;DHT22;4247;48.550;8.822;2023-06-05T08:21:13;23.50;74.40
8420;DHT22;4247;48.550;8.822;2023-06-05T08:23:40;23.50;75.10
8420;DHT22;4247;48.550;8.822;2023-06-05T08:26:06;23.50;74.30
8420;DHT22;4247;48.550;8.822;2023-06-05T08:28:37;23.50;76.50
8420;DHT22;4247;48.550;8.822;2023-06-05T08:31:04;23.40;75.10
8420;DHT22;4247;48.550;8.822;2023-06-05T08:33:32;23.20;76.70
8420;DHT22;4247;48.550;8.822;2023-06-05T08:36:01;23.10;76.30
8420;DHT22;4247;48.550;8.822;2023-06-05T08:38:28;23.10;77.50
8420;DHT22;4247;48.550;8.822;2023-06-05T08:40:58;23.00;77.50
8420;DHT22;4247;48.550;8.822;2023-06-05T08:43:26;22.90;77.60
8420;DHT22;4247;48.550;8.822;2023-06-05T08:45:54;22.90;78.40
8420;DHT22;4247;48.550;8.822;2023-06-05T08:48:21;22.80;77.60
8420;DHT22;4247;48.550;8.822;2023-06-05T08:50:48;22.80;78.00
8420;DHT22;4247;48.550;8.822;2023-06-05T08:53:18;22.90;78.30
8420;DHT22;4247;48.550;8.822;2023-06-05T08:55:47;22.90;80.70
8420;DHT22;4247;48.550;8.822;2023-06-05T08:58:17;22.90;78.80
8420;DHT22;4247;48.550;8.822;2023-06-05T09:00:44;23.00;80.00
8420;DHT22;4247;48.550;8.822;2023-06-05T09:03:14;22.80;79.30
8420;DHT22;4247;48.550;8.822;2023-06-05T09:05:43;22.80;80.20
8420;DHT22;4247;48.550;8.822;2023-06-05T09:08:10;22.80;80.40
8420;DHT22;4247;48.550;8.822;2023-06-05T09:10:38;22.80;79.90
8420;DHT22;4247;48.550;8.822;2023-06-05T09:13:05;22.90;81.00
8420;DHT22;4247;48.550;8.822;2023-06-05T09:15:33;23.00;81.90
8420;DHT22;4247;48.550;8.822;2023-06-05T09:18:08;23.20;81.30
8420;DHT22;4247;48.550;8.822;2023-06-05T09:20:36;23.20;80.70
8420;DHT22;4247;48.550;8.822;2023-06-05T09:23:03;23.20;82.20
8420;DHT22;4247;48.550;8.822;2023-06-05T09:25:47;23.20;82.10
8420;DHT22;4247;48.550;8.822;2023-06-05T09:28:16;23.10;82.90
8420;DHT22;4247;48.550;8.822;2023-06-05T09:30:54;23.20;83.40
8420;DHT22;4247;48.550;8.822;2023-06-05T09:33:22;23.10;82.80
8420;DHT22;4247;48.550;8.822;2023-06-05T09:36:02;23.00;82.40
8420;DHT22;4247;48.550;8.822;2023-06-05T09:38:29;23.00;82.40
8420;DHT22;4247;48.550;8.822;2023-06-05T09:41:03;22.90;83.80
8420;DHT22;4247;48.550;8.822;2023-06-05T09:43:30;22.90;83.70
8420;DHT22;4247;48.550;8.822;2023-06-05T09:45:57;23.00;83.20
8420;DHT22;4247;48.550;8.822;2023-06-05T09:48:24;22.90;81.60
8420;DHT22;4247;48.550;8.822;2023-06-05T09:50:52;23.00;82.00
8420;DHT22;4247;48.550;8.822;2023-06-05T09:53:20;23.20;84.10
8420;DHT22;4247;48.550;8.822;2023-06-05T09:55:47;23.10;83.30
8420;DHT22;4247;48.550;8.822;2023-06-05T09:58:17;23.00;83.20
8420;DHT22;4247;48.550;8.822;2023-06-05T10:00:46;23.10;82.90
8420;DHT22;4247;48.550;8.822;2023-06-05T10:03:15;23.00;82.20
8420;DHT22;4247;48.550;8.822;2023-06-05T10:05:44;23.10;81.80
8420;DHT22;4247;48.550;8.822;2023-06-05T10:08:11;23.10;81.80
8420;DHT22;4247;48.550;8.822;2023-06-05T10:10:39;22.90;83.00
8420;DHT22;4247;48.550;8.822;2023-06-05T10:13:06;22.90;83.20
8420;DHT22;4247;48.550;8.822;2023-06-05T10:15:34;23.10;84.70
8420;DHT22;4247;48.550;8.822;2023-06-05T10:18:04;23.20;81.90
8420;DHT22;4247;48.550;8.822;2023-06-05T10:20:34;23.30;82.40
8420;DHT22;4247;48.550;8.822;2023-06-05T10:23:01;23.30;81.90
8420;DHT22;4247;48.550;8.822;2023-06-05T10:25:30;23.20;82.90
8420;DHT22;4247;48.550;8.822;2023-06-05T10:31:15;23.10;83.30
8420;DHT22;4247;48.550;8.822;2023-06-05T10:33:51;23.30;81.60
8420;DHT22;4247;48.550;8.822;2023-06-05T10:36:34;23.40;82.80
8420;DHT22;4247;48.550;8.822;2023-06-05T10:39:08;23.50;82.10
8420;DHT22;4247;48.550;8.822;2023-06-05T10:41:35;23.40;81.80
8420;DHT22;4247;48.550;8.822;2023-06-05T10:44:02;23.40;79.60
8420;DHT22;4247;48.550;8.822;2023-06-05T10:46:31;23.50;80.20
8420;DHT22;4247;48.550;8.822;2023-06-05T10:49:11;23.40;80.80
8420;DHT22;4247;48.550;8.822;2023-06-05T10:51:41;23.40;81.70
8420;DHT22;4247;48.550;8.822;2023-06-05T10:54:10;23.40;81.40
8420;DHT22;4247;48.550;8.822;2023-06-05T10:56:56;23.30;81.00
8420;DHT22;4247;48.550;8.822;2023-06-05T10:59:25;23.20;79.40
8420;DHT22;4247;48.550;8.822;2023-06-05T11:02:25;23.10;79.10
8420;DHT22;4247;48.550;8.822;2023-06-05T11:05:08;23.10;79.50
8420;DHT22;4247;48.550;8.822;2023-06-05T11:07:39;23.30;80.80
8420;DHT22;4247;48.550;8.822;2023-06-05T11:10:11;23.40;80.40
8420;DHT22;4247;48.550;8.822;2023-06-05T11:13:02;23.30;79.80
8420;DHT22;4247;48.550;8.822;2023-06-05T11:15:39;23.50;80.00
8420;DHT22;4247;48.550;8.822;2023-06-05T11:18:31;23.40;79.50
8420;DHT22;4247;48.550;8.822;2023-06-05T11:20:58;23.40;79.10
8420;DHT22;4247;48.550;8.822;2023-06-05T11:23:26;23.40;80.20
8420;DHT22;4247;48.550;8.822;2023-06-05T11:25:56;23.40;79.90
8420;DHT22;4247;48.550;8.822;2023-06-05T11:28:39;23.40;80.40
8420;DHT22;4247;48.550;8.822;2023-06-05T11:31:07;23.20;78.90
8420;DHT22;4247;48.550;8.822;2023-06-05T11:33:35;23.20;79.50
8420;DHT22;4247;48.550;8.822;2023-06-05T11:36:05;23.20;79.10
8420;DHT22;4247;48.550;8.822;2023-06-05T11:38:32;23.20;79.00
8420;DHT22;4247;48.550;8.822;2023-06-05T11:41:00;23.40;79.90
8420;DHT22;4247;48.550;8.822;2023-06-05T11:43:26;23.60;78.70
8420;DHT22;4247;48.550;8.822;2023-06-05T11:45:54;23.60;77.70
8420;DHT22;4247;48.550;8.822;2023-06-05T11:48:22;23.50;77.50
8420;DHT22;4247;48.550;8.822;2023-06-05T11:50:57;23.60;78.60
8420;DHT22;4247;48.550;8.822;2023-06-05T11:53:24;23.70;78.60
8420;DHT22;4247;48.550;8.822;2023-06-05T11:55:52;23.80;78.50
8420;DHT22;4247;48.550;8.822;2023-06-05T11:58:33;23.90;77.80
8420;DHT22;4247;48.550;8.822;2023-06-05T12:01:05;23.80;75.30
8420;DHT22;4247;48.550;8.822;2023-06-05T12:03:33;24.00;77.40
8420;DHT22;4247;48.550;8.822;2023-06-05T12:06:03;24.00;74.20
8420;DHT22;4247;48.550;8.822;2023-06-05T12:08:31;24.00;75.10
8420;DHT22;4247;48.550;8.822;2023-06-05T12:10:59;24.10;75.70
8420;DHT22;4247;48.550;8.822;2023-06-05T12:13:44;24.00;74.80
8420;DHT22;4247;48.550;8.822;2023-06-05T12:16:10;24.10;74.70
8420;DHT22;4247;48.550;8.822;2023-06-05T12:18:37;23.90;75.00
8420;DHT22;4247;48.550;8.822;2023-06-05T12:21:05;23.90;74.00
8420;DHT22;4247;48.550;8.822;2023-06-05T12:23:32;23.90;74.60
8420;DHT22;4247;48.550;8.822;2023-06-05T12:25:59;23.80;74.50
8420;DHT22;4247;48.550;8.822;2023-06-05T12:28:27;23.70;74.20
8420;DHT22;4247;48.550;8.822;2023-06-05T12:30:54;23.60;73.10
8420;DHT22;4247;48.550;8.822;2023-06-05T12:33:21;23.60;74.80
8420;DHT22;4247;48.550;8.822;2023-06-05T12:36:02;23.70;74.90
8420;DHT22;4247;48.550;8.822;2023-06-05T12:38:30;23.60;73.90
8420;DHT22;4247;48.550;8.822;2023-06-05T12:41:02;23.60;74.80
8420;DHT22;4247;48.550;8.822;2023-06-05T12:43:31;23.60;73.50
8420;DHT22;4247;48.550;8.822;2023-06-05T12:45:58;23.50;73.10
8420;DHT22;4247;48.550;8.822;2023-06-05T12:48:25;23.40;73.60
8420;DHT22;4247;48.550;8.822;2023-06-05T12:50:51;23.40;71.90
8420;DHT22;4247;48.550;8.822;2023-06-05T12:53:18;23.40;72.00
8420;DHT22;4247;48.550;8.822;2023-06-05T12:55:46;23.50;72.90
8420;DHT22;4247;48.550;8.822;2023-06-05T12:58:13;23.40;71.40
8420;DHT22;4247;48.550;8.822;2023-06-05T13:00:40;23.50;71.60
8420;DHT22;4247;48.550;8.822;2023-06-05T13:03:07;23.60;70.90
8420;DHT22;4247;48.550;8.822;2023-06-05T13:05:34;23.50;70.10
8420;DHT22;4247;48.550;8.822;2023-06-05T13:08:01;23.60;69.80
8420;DHT22;4247;48.550;8.822;2023-06-05T13:10:28;23.60;69.90
8420;DHT22;4247;48.550;8.822;2023-06-05T13:12:56;23.60;69.90
8420;DHT22;4247;48.550;8.822;2023-06-05T13:15:23;23.60;69.60
8420;DHT22;4247;48.550;8.822;2023-06-05T13:17:50;23.60;68.60
8420;DHT22;4247;48.550;8.822;2023-06-05T13:20:17;23.50;68.80
8420;DHT22;4247;48.550;8.822;2023-06-05T13:22:43;23.60;68.10
8420;DHT22;4247;48.550;8.822;2023-06-05T13:25:10;23.50;67.40
8420;DHT22;4247;48.550;8.822;2023-06-05T13:27:38;23.60;68.60
8420;DHT22;4247;48.550;8.822;2023-06-05T13:30:07;23.60;69.00
8420;DHT22;4247;48.550;8.822;2023-06-05T13:32:34;23.50;67.00
8420;DHT22;4247;48.550;8.822;2023-06-05T13:35:02;23.60;67.80
8420;DHT22;4247;48.550;8.822;2023-06-05T13:37:30;23.50;66.20
8420;DHT22;4247;48.550;8.822;2023-06-05T13:39:57;23.60;67.10
8420;DHT22;4247;48.550;8.822;2023-06-05T13:42:23;23.60;66.90
8420;DHT22;4247;48.550;8.822;2023-06-05T13:44:50;23.60;66.80
8420;DHT22;4247;48.550;8.822;2023-06-05T13:47:18;23.70;65.90
8420;DHT22;4247;48.550;8.822;2023-06-05T13:49:46;23.60;66.00
8420;DHT22;4247;48.550;8.822;2023-06-05T13:52:12;23.70;66.20
8420;DHT22;4247;48.550;8.822;2023-06-05T13:54:39;23.70;65.10
8420;DHT22;4247;48.550;8.822;2023-06-05T13:57:08;23.70;66.80
8420;DHT22;4247;48.550;8.822;2023-06-05T13:59:35;23.60;64.60
8420;DHT22;4247;48.550;8.822;2023-06-05T14:02:02;23.60;64.70
8420;DHT22;4247;48.550;8.822;2023-06-05T14:04:30;23.60;66.00
8420;DHT22;4247;48.550;8.822;2023-06-05T14:06:57;23.70;65.40
8420;DHT22;4247;48.550;8.822;2023-06-05T14:09:24;23.70;64.70
8420;DHT22;4247;48.550;8.822;2023-06-05T14:11:52;23.70;64.70
8420;DHT22;4247;48.550;8.822;2023-06-05T14:14:19;23.60;64.80
8420;DHT22;4247;48.550;8.822;2023-06-05T14:16:46;23.40;66.50
8420;DHT22;4247;48.550;8.822;2023-06-05T14:19:12;23.40;66.50
8420;DHT22;4247;48.550;8.822;2023-06-05T14:21:40;23.40;66.50
8420;DHT22;4247;48.550;8.822;2023-06-05T14:24:07;23.30;66.20
8420;DHT22;4247;48.550;8.822;2023-06-05T14:26:35;23.30;64.80
8420;DHT22;4247;48.550;8.822;2023-06-05T14:29:02;23.30;64.10
8420;DHT22;4247;48.550;8.822;2023-06-05T14:31:29;23.40;64.30
8420;DHT22;4247;48.550;8.822;2023-06-05T14:33:56;23.40;64.60
8420;DHT22;4247;48.550;8.822;2023-06-05T14:36:23;23.40;64.80
8420;DHT22;4247;48.550;8.822;2023-06-05T14:38:52;23.40;64.40
8420;DHT22;4247;48.550;8.822;2023-06-05T14:41:18;23.40;66.30
8420;DHT22;4247;48.550;8.822;2023-06-05T14:43:46;23.50;65.90
8420;DHT22;4247;48.550;8.822;2023-06-05T14:46:12;23.60;66.80
8420;DHT22;4247;48.550;8.822;2023-06-05T14:48:39;23.50;65.60
8420;DHT22;4247;48.550;8.822;2023-06-05T14:51:07;23.50;65.60
8420;DHT22;4247;48.550;8.822;2023-06-05T14:53:34;23.30;64.60
8420;DHT22;4247;48.550;8.822;2023-06-05T14:56:02;23.30;64.70
8420;DHT22;4247;48.550;8.822;2023-06-05T14:58:28;23.30;65.30
8420;DHT22;4247;48.550;8.822;2023-06-05T15:00:55;23.30;66.40
8420;DHT22;4247;48.550;8.822;2023-06-05T15:03:22;23.30;64.20
8420;DHT22;4247;48.550;8.822;2023-06-05T15:05:49;23.30;66.60
8420;DHT22;4247;48.550;8.822;2023-06-05T15:08:15;23.30;66.20
8420;DHT22;4247;48.550;8.822;2023-06-05T15:10:42;23.30;65.60
8420;DHT22;4247;48.550;8.822;2023-06-05T15:13:10;23.30;66.40
8420;DHT22;4247;48.550;8.822;2023-06-05T15:15:37;23.30;65.00
8420;DHT22;4247;48.550;8.822;2023-06-05T15:18:04;23.30;64.40
8420;DHT22;4247;48.550;8.822;2023-06-05T15:20:32;23.40;64.90
8420;DHT22;4247;48.550;8.822;2023-06-05T15:22:59;23.30;66.00
8420;DHT22;4247;48.550;8.822;2023-06-05T15:25:26;23.40;66.20
8420;DHT22;4247;48.550;8.822;2023-06-05T15:27:53;23.40;67.00
8420;DHT22;4247;48.550;8.822;2023-06-05T15:30:21;23.30;64.80
8420;DHT22;4247;48.550;8.822;2023-06-05T15:32:48;23.30;64.20
8420;DHT22;4247;48.550;8.822;2023-06-05T15:35:15;23.30;65.60
8420;DHT22;4247;48.550;8.822;2023-06-05T15:37:41;23.30;65.40
8420;DHT22;4247;48.550;8.822;2023-06-05T15:40:09;23.20;63.90
8420;DHT22;4247;48.550;8.822;2023-06-05T15:42:37;23.20;65.30
8420;DHT22;4247;48.550;8.822;2023-06-05T15:45:07;23.20;64.50
8420;DHT22;4247;48.550;8.822;2023-06-05T15:47:35;23.20;64.00
8420;DHT22;4247;48.550;8.822;2023-06-05T15:50:03;23.20;63.90
8420;DHT22;4247;48.550;8.822;2023-06-05T15:52:31;23.20;64.60
8420;DHT22;4247;48.550;8.822;2023-06-05T15:54:58;23.10;63.60
8420;DHT22;4247;48.550;8.822;2023-06-05T15:57:25;23.10;65.00
8420;DHT22;4247;48.550;8.822;2023-06-05T15:59:52;23.20;64.70
8420;DHT22;4247;48.550;8.822;2023-06-05T16:02:19;23.10;65.00
8420;DHT22;4247;48.550;8.822;2023-06-05T16:04:47;23.00;63.90
8420;DHT22;4247;48.550;8.822;2023-06-05T16:07:14;23.00;64.90
8420;DHT22;4247;48.550;8.822;2023-06-05T16:09:42;23.00;64.90
8420;DHT22;4247;48.550;8.822;2023-06-05T16:12:09;22.90;64.90
8420;DHT22;4247;48.550;8.822;2023-06-05T16:14:36;22.90;65.00